createdAt,value
2023-02-18T00:01:20.078Z,102232.38
2023-02-18T00:03:47.568Z,102209.78
2023-02-18T00:06:25.538Z,102219.75
2023-02-18T00:08:52.646Z,102215.16
2023-02-18T00:11:21.863Z,102224.59
2023-02-18T00:13:55.821Z,102221.25
2023-02-18T00:16:23.297Z,102205.66
2023-02-18T00:18:50.114Z,102211.38
2023-02-18T00:21:16.982Z,102200.41
2023-02-18T00:23:44.070Z,102210.59
2023-02-18T00:26:13.532Z,102211.25
2023-02-18T00:28:41.340Z,102208.13
2023-02-18T00:31:13.683Z,102210.69
2023-02-18T00:33:41.321Z,102205.84
2023-02-18T00:36:11.848Z,102200.81
2023-02-18T00:38:38.969Z,102201.47
2023-02-18T00:41:06.777Z,102195.34
2023-02-18T00:43:33.800Z,102183.34
2023-02-18T00:46:02.205Z,102196.75
2023-02-18T00:48:28.721Z,102173.31
2023-02-18T00:50:55.327Z,102165.88
2023-02-18T00:53:22.927Z,102162.34
2023-02-18T00:55:49.438Z,102174.09
2023-02-18T00:58:17.109Z,102170.00
2023-02-18T01:00:44.357Z,102172.72
2023-02-18T01:03:12.606Z,102166.91
2023-02-18T01:05:39.594Z,102158.91
2023-02-18T01:08:07.937Z,102151.38
2023-02-18T01:10:35.739Z,102153.06
2023-02-18T01:13:04.644Z,102143.13
2023-02-18T01:15:31.382Z,102139.38
2023-02-18T01:17:57.997Z,102140.84
2023-02-18T01:20:24.682Z,102143.59
2023-02-18T01:22:51.222Z,102136.81
2023-02-18T01:25:18.239Z,102138.44
2023-02-18T01:27:44.815Z,102141.25
2023-02-18T01:30:15.495Z,102164.84
2023-02-18T01:32:42.350Z,102148.75
2023-02-18T01:35:12.837Z,102146.69
2023-02-18T01:37:39.437Z,102146.59
2023-02-18T01:40:07.841Z,102140.72
2023-02-18T01:42:34.413Z,102145.34
2023-02-18T01:45:34.757Z,102144.75
2023-02-18T01:48:07.916Z,102153.44
2023-02-18T01:50:38.949Z,102140.41
2023-02-18T01:53:06.389Z,102135.78
2023-02-18T01:55:34.456Z,102132.22
2023-02-18T01:58:01.553Z,102138.06
2023-02-18T02:00:29.325Z,102129.06
2023-02-18T02:02:56.123Z,102132.44
2023-02-18T02:05:22.753Z,102138.66
2023-02-18T02:07:53.870Z,102127.41
2023-02-18T02:10:20.776Z,102121.50
2023-02-18T02:12:59.361Z,102126.09
2023-02-18T02:15:51.310Z,102122.28
2023-02-18T02:18:30.044Z,102114.09
2023-02-18T02:21:33.662Z,102111.66
2023-02-18T02:24:30.760Z,102108.28
2023-02-18T02:27:12.670Z,102105.88
2023-02-18T02:30:14.718Z,102104.53
2023-02-18T02:33:24.721Z,102102.78
2023-02-18T02:36:05.513Z,102092.78
2023-02-18T02:38:53.280Z,102083.47
2023-02-18T02:41:28.629Z,102073.16
2023-02-18T02:44:20.517Z,102095.19
2023-02-18T02:46:52.252Z,102073.84
2023-02-18T02:49:41.658Z,102072.31
2023-02-18T02:52:17.034Z,102056.34
2023-02-18T02:54:43.598Z,102052.25
2023-02-18T02:57:33.212Z,102062.25
2023-02-18T03:00:15.597Z,102051.22
2023-02-18T03:03:25.221Z,102044.28
2023-02-18T03:06:09.554Z,102033.88
2023-02-18T03:08:45.409Z,102023.72
2023-02-18T03:11:15.733Z,102012.88
2023-02-18T03:13:56.401Z,102003.56
2023-02-18T03:16:38.168Z,102009.41
2023-02-18T03:19:33.626Z,101998.00
2023-02-18T03:22:07.136Z,101996.31
2023-02-18T03:24:39.168Z,101998.69
2023-02-18T03:27:09.630Z,101987.72
2023-02-18T03:29:36.916Z,101974.84
2023-02-18T03:32:07.602Z,101980.78
2023-02-18T03:34:41.608Z,101976.19
2023-02-18T03:37:09.753Z,101970.81
2023-02-18T03:39:39.367Z,101969.66
2023-02-18T03:42:05.964Z,101958.13
2023-02-18T03:44:32.592Z,101950.53
2023-02-18T03:46:59.144Z,101954.56
2023-02-18T03:49:25.696Z,101949.16
2023-02-18T03:51:52.556Z,101953.38
2023-02-18T03:54:20.512Z,101942.56
2023-02-18T03:56:47.383Z,101946.91
2023-02-18T03:59:13.933Z,101940.00
2023-02-18T04:01:40.845Z,101929.00
2023-02-18T04:04:07.491Z,101932.34
2023-02-18T04:06:34.312Z,101924.81
2023-02-18T04:09:00.863Z,101939.44
2023-02-18T04:11:27.409Z,101925.22
2023-02-18T04:13:53.939Z,101923.03
2023-02-18T04:16:20.664Z,101912.66
2023-02-18T04:18:47.260Z,101914.44
2023-02-18T04:21:13.834Z,101918.50
2023-02-18T04:23:40.380Z,101912.13
2023-02-18T04:26:07.346Z,101913.03
2023-02-18T04:28:34.159Z,101912.66
2023-02-18T04:31:00.683Z,101906.47
2023-02-18T04:33:27.285Z,101906.59
2023-02-18T04:35:53.802Z,101906.91
2023-02-18T04:38:20.350Z,101902.44
2023-02-18T04:40:47.094Z,101900.53
2023-02-18T04:43:13.679Z,101898.06
2023-02-18T04:45:40.213Z,101908.81
2023-02-18T04:48:06.908Z,101910.91
2023-02-18T04:50:35.442Z,101902.09
2023-02-18T04:53:02.041Z,101908.56
2023-02-18T04:55:28.675Z,101914.28
2023-02-18T04:57:55.282Z,101896.38
2023-02-18T05:00:22.033Z,101918.25
2023-02-18T05:02:48.615Z,101897.91
2023-02-18T05:05:15.730Z,101888.34
2023-02-18T05:07:42.612Z,101895.25
2023-02-18T05:10:11.629Z,101901.94
2023-02-18T05:12:38.224Z,101873.22
2023-02-18T05:15:05.158Z,101889.78
2023-02-18T05:17:31.766Z,101880.59
2023-02-18T05:19:58.318Z,101865.09
2023-02-18T05:22:24.975Z,101866.94
2023-02-18T05:24:51.540Z,101853.44
2023-02-18T05:27:18.111Z,101870.50
2023-02-18T05:29:44.770Z,101872.53
2023-02-18T05:32:11.350Z,101872.50
2023-02-18T05:34:37.857Z,101850.13
2023-02-18T05:37:04.409Z,101876.94
2023-02-18T05:39:30.966Z,101863.06
2023-02-18T05:41:57.506Z,101873.81
2023-02-18T05:44:30.460Z,101872.56
2023-02-18T05:47:02.745Z,101872.00
2023-02-18T05:49:30.829Z,101858.13
2023-02-18T05:51:57.706Z,101856.09
2023-02-18T05:54:25.251Z,101858.19
2023-02-18T05:56:52.341Z,101850.59
2023-02-18T05:59:19.605Z,101845.03
2023-02-18T06:01:46.882Z,101833.34
2023-02-18T06:04:14.058Z,101830.00
2023-02-18T06:06:41.388Z,101833.75
2023-02-18T06:09:08.888Z,101828.72
2023-02-18T06:11:36.191Z,101838.19
2023-02-18T06:14:03.252Z,101838.91
2023-02-18T06:16:30.231Z,101839.75
2023-02-18T06:18:56.966Z,101843.94
2023-02-18T06:21:24.018Z,101808.59
2023-02-18T06:23:50.845Z,101809.88
2023-02-18T06:26:17.544Z,101823.28
2023-02-18T06:28:44.049Z,101822.09
2023-02-18T06:31:10.745Z,101829.22
2023-02-18T06:33:37.331Z,101830.72
2023-02-18T06:36:07.874Z,101843.09
2023-02-18T06:38:35.678Z,101849.75
2023-02-18T06:41:02.877Z,101833.47
2023-02-18T06:43:29.671Z,101828.69
2023-02-18T06:45:56.270Z,101821.00
2023-02-18T06:48:23.254Z,101826.06
2023-02-18T06:50:50.435Z,101818.75
2023-02-18T06:53:17.677Z,101819.31
2023-02-18T06:55:44.967Z,101830.84
2023-02-18T06:58:12.696Z,101837.84
2023-02-18T07:00:39.672Z,101824.44
2023-02-18T07:03:07.316Z,101832.34
2023-02-18T07:05:34.168Z,101844.19
2023-02-18T07:08:01.396Z,101836.25
2023-02-18T07:10:28.018Z,101836.97
2023-02-18T07:12:54.617Z,101837.56
2023-02-18T07:15:24.184Z,101840.69
2023-02-18T07:17:52.254Z,101839.66
2023-02-18T07:20:20.608Z,101837.47
2023-02-18T07:22:47.486Z,101850.56
2023-02-18T07:25:14.831Z,101852.69
2023-02-18T07:27:41.387Z,101848.88
2023-02-18T07:30:08.839Z,101848.09
2023-02-18T07:32:35.802Z,101854.19
2023-02-18T07:35:04.504Z,101864.22
2023-02-18T07:37:31.117Z,101866.81
2023-02-18T07:39:57.649Z,101862.16
2023-02-18T07:42:24.796Z,101865.13
2023-02-18T07:44:51.381Z,101858.81
2023-02-18T07:47:20.931Z,101863.88
2023-02-18T07:49:47.731Z,101879.41
2023-02-18T07:52:15.773Z,101858.38
2023-02-18T07:54:42.403Z,101869.69
2023-02-18T07:57:09.054Z,101857.97
2023-02-18T07:59:35.703Z,101867.59
2023-02-18T08:02:02.605Z,101860.06
2023-02-18T08:04:29.346Z,101849.81
2023-02-18T08:06:55.906Z,101854.03
2023-02-18T08:09:22.382Z,101851.28
2023-02-18T08:11:48.967Z,101853.78
2023-02-18T08:14:15.516Z,101868.09
2023-02-18T08:16:42.138Z,101856.72
2023-02-18T08:19:08.796Z,101858.22
2023-02-18T08:21:35.319Z,101862.59
2023-02-18T08:24:01.911Z,101861.09
2023-02-18T08:26:28.731Z,101856.47
2023-02-18T08:28:55.471Z,101858.59
2023-02-18T08:31:25.903Z,101878.13
2023-02-18T08:33:54.405Z,101872.22
2023-02-18T08:36:21.848Z,101872.19
2023-02-18T08:38:48.575Z,101863.38
2023-02-18T08:41:15.705Z,101873.22
2023-02-18T08:43:42.932Z,101867.31
2023-02-18T08:46:16.051Z,101874.72
2023-02-18T08:48:46.545Z,101873.81
2023-02-18T08:51:18.778Z,101886.22
2023-02-18T08:53:47.098Z,101879.91
2023-02-18T08:56:14.876Z,101894.44
2023-02-18T08:58:42.179Z,101886.25
2023-02-18T09:01:11.822Z,101891.56
2023-02-18T09:03:39.442Z,101890.75
2023-02-18T09:06:06.652Z,101887.78
2023-02-18T09:08:33.234Z,101874.31
2023-02-18T09:11:02.053Z,101901.03
2023-02-18T09:13:28.545Z,101889.25
2023-02-18T09:16:07.135Z,101889.06
2023-02-18T09:18:35.958Z,101884.84
2023-02-18T09:21:04.065Z,101873.97
2023-02-18T09:23:31.994Z,101877.09
2023-02-18T09:25:59.848Z,101880.06
2023-02-18T09:28:27.329Z,101883.19
2023-02-18T09:30:53.961Z,101881.09
2023-02-18T09:33:20.577Z,101868.28
2023-02-18T09:35:47.477Z,101876.91
2023-02-18T09:38:17.023Z,101880.25
2023-02-18T09:40:47.149Z,101881.31
2023-02-18T09:43:47.289Z,101896.88
2023-02-18T09:46:39.749Z,101894.97
2023-02-18T09:49:17.060Z,101899.78
2023-02-18T09:51:44.074Z,101893.91
2023-02-18T09:54:13.822Z,101909.25
2023-02-18T09:56:42.697Z,101897.03
2023-02-18T09:59:17.116Z,101900.44
2023-02-18T10:01:46.039Z,101910.69
2023-02-18T10:04:18.374Z,101897.03
2023-02-18T10:06:49.699Z,101898.31
2023-02-18T10:09:21.967Z,101897.91
2023-02-18T10:11:52.740Z,101904.19
2023-02-18T10:14:19.820Z,101890.75
2023-02-18T10:16:49.276Z,101898.31
2023-02-18T10:19:18.778Z,101908.41
2023-02-18T10:21:46.262Z,101920.78
2023-02-18T10:24:36.761Z,101933.41
2023-02-18T10:27:07.214Z,101928.13
2023-02-18T10:29:35.097Z,101929.63
2023-02-18T10:32:23.797Z,101934.66
2023-02-18T10:35:12.297Z,101923.53
2023-02-18T10:38:06.805Z,101941.38
2023-02-18T10:41:05.829Z,101932.31
2023-02-18T10:44:03.546Z,101925.59
2023-02-18T10:46:55.084Z,101938.19
2023-02-18T10:49:33.702Z,101953.94
2023-02-18T10:52:03.566Z,101942.00
2023-02-18T10:54:51.142Z,101953.75
2023-02-18T10:57:23.409Z,101951.06
2023-02-18T10:59:59.066Z,101962.19
2023-02-18T11:02:32.501Z,101963.06
2023-02-18T11:05:06.345Z,101949.41
2023-02-18T11:07:36.124Z,101956.75
2023-02-18T11:10:17.919Z,101945.81
2023-02-18T11:12:48.985Z,101959.69
2023-02-18T11:15:15.460Z,101947.88
2023-02-18T11:17:43.591Z,101946.63
2023-02-18T11:20:30.925Z,101956.69
2023-02-18T11:23:21.665Z,101961.72
2023-02-18T11:26:01.798Z,101941.56
2023-02-18T11:28:41.801Z,101953.06
2023-02-18T11:31:10.064Z,101947.41
2023-02-18T11:33:58.509Z,101954.75
2023-02-18T11:36:28.043Z,101948.63
2023-02-18T11:38:57.301Z,101958.72
2023-02-18T11:41:34.233Z,101953.66
2023-02-18T11:44:03.185Z,101943.16
2023-02-18T11:46:29.873Z,101949.03
2023-02-18T11:49:10.641Z,101927.16
2023-02-18T11:51:40.438Z,101953.25
2023-02-18T11:54:27.753Z,101937.84
2023-02-18T11:57:03.542Z,101937.44
2023-02-18T11:59:33.954Z,101955.31
2023-02-18T12:02:18.119Z,101931.13
2023-02-18T12:04:58.809Z,101928.28
2023-02-18T12:07:31.751Z,101909.78
2023-02-18T12:10:02.769Z,101923.34
2023-02-18T12:12:48.208Z,101912.31
2023-02-18T12:15:22.163Z,101918.41
2023-02-18T12:18:21.181Z,101932.22
2023-02-18T12:21:29.806Z,101925.19
2023-02-18T12:24:05.997Z,101917.75
2023-02-18T12:26:55.659Z,101911.91
2023-02-18T12:29:39.781Z,101919.84
2023-02-18T12:32:30.039Z,101933.28
2023-02-18T12:35:11.516Z,101909.53
2023-02-18T12:37:38.020Z,101923.22
2023-02-18T12:40:23.823Z,101923.56
2023-02-18T12:43:14.999Z,101913.50
2023-02-18T12:46:10.888Z,101915.13
2023-02-18T12:49:03.736Z,101903.03
2023-02-18T12:51:54.969Z,101914.97
2023-02-18T12:54:35.614Z,101961.41
2023-02-18T12:57:21.925Z,101914.66
2023-02-18T13:00:23.498Z,101932.53
2023-02-18T13:03:27.646Z,101931.94
2023-02-18T13:06:09.623Z,101918.00
2023-02-18T13:09:30.738Z,101921.63
2023-02-18T13:12:19.901Z,101912.25
2023-02-18T13:14:58.853Z,101917.50
2023-02-18T13:17:29.052Z,101917.50
2023-02-18T13:20:21.658Z,101935.97
2023-02-18T13:22:50.292Z,101929.97
2023-02-18T13:25:18.442Z,101928.06
2023-02-18T13:28:18.757Z,101921.22
2023-02-18T13:31:13.842Z,101920.38
2023-02-18T13:34:04.377Z,101909.97
2023-02-18T13:36:58.217Z,101919.69
2023-02-18T13:39:25.510Z,101911.31
2023-02-18T13:42:09.829Z,101902.88
2023-02-18T13:45:00.047Z,101902.03
2023-02-18T13:47:37.230Z,101910.38
2023-02-18T13:50:28.398Z,101913.47
2023-02-18T13:53:07.081Z,101943.44
2023-02-18T13:55:51.817Z,101901.75
2023-02-18T13:58:44.964Z,101914.59
2023-02-18T14:01:11.561Z,101925.84
2023-02-18T14:03:44.930Z,101914.69
2023-02-18T14:06:33.386Z,101924.25
2023-02-18T14:09:26.061Z,101905.91
2023-02-18T14:11:57.846Z,101929.56
2023-02-18T14:14:27.045Z,101938.44
2023-02-18T14:17:18.482Z,101928.22
2023-02-18T14:20:00.206Z,101926.53
2023-02-18T14:22:38.867Z,101936.28
2023-02-18T14:25:08.100Z,101929.34
2023-02-18T14:27:36.387Z,101924.94
2023-02-18T14:30:07.866Z,101921.50
2023-02-18T14:32:34.964Z,101915.56
2023-02-18T14:35:40.859Z,101943.31
2023-02-18T14:38:19.326Z,101940.41
2023-02-18T14:41:08.805Z,101936.44
2023-02-18T14:44:06.132Z,101932.72
2023-02-18T14:46:56.786Z,101928.09
2023-02-18T14:49:48.193Z,101927.41
2023-02-18T14:52:46.113Z,101930.53
2023-02-18T14:55:44.966Z,101935.53
2023-02-18T14:58:28.105Z,101922.91
2023-02-18T15:00:54.961Z,101917.41
2023-02-18T15:03:22.600Z,101908.66
2023-02-18T15:05:52.484Z,101918.41
2023-02-18T15:08:26.000Z,101915.44
2023-02-18T15:11:00.155Z,101922.91
2023-02-18T15:13:33.981Z,101914.44
2023-02-18T15:16:04.995Z,101925.25
2023-02-18T15:18:42.344Z,101932.41
2023-02-18T15:21:24.439Z,101920.38
2023-02-18T15:23:51.543Z,101918.94
2023-02-18T15:26:18.395Z,101926.09
2023-02-18T15:28:59.440Z,101922.91
2023-02-18T15:31:27.994Z,101924.88
2023-02-18T15:33:55.008Z,101915.34
2023-02-18T15:36:21.928Z,101905.69
2023-02-18T15:38:48.583Z,101918.31
2023-02-18T15:41:18.779Z,101918.84
2023-02-18T15:44:02.956Z,101920.28
2023-02-18T15:46:29.744Z,101912.03
2023-02-18T15:48:57.376Z,101917.25
2023-02-18T15:51:28.838Z,101905.06
2023-02-18T15:54:01.365Z,101905.81
2023-02-18T15:56:34.493Z,101910.94
2023-02-18T15:59:18.155Z,101906.91
2023-02-18T16:02:07.729Z,101908.44
2023-02-18T16:04:39.291Z,101901.56
2023-02-18T16:07:24.538Z,101906.28
2023-02-18T16:09:57.618Z,101903.16
2023-02-18T16:12:32.432Z,101916.50
2023-02-18T16:15:00.232Z,101896.69
2023-02-18T16:17:29.118Z,101897.59
2023-02-18T16:20:15.066Z,101901.94
2023-02-18T16:22:52.023Z,101906.00
2023-02-18T16:25:24.081Z,101903.94
2023-02-18T16:27:59.697Z,101916.31
2023-02-18T16:30:29.120Z,101909.59
2023-02-18T16:32:56.035Z,101911.72
2023-02-18T16:35:25.185Z,101907.72
2023-02-18T16:37:53.459Z,101907.94
2023-02-18T16:40:40.606Z,101918.22
2023-02-18T16:43:19.128Z,101919.44
2023-02-18T16:45:49.937Z,101906.84
2023-02-18T16:48:33.462Z,101911.94
2023-02-18T16:51:03.178Z,101911.50
2023-02-18T16:53:29.748Z,101905.63
2023-02-18T16:55:56.457Z,101906.25
2023-02-18T16:58:23.158Z,101898.13
2023-02-18T17:00:52.386Z,101905.31
2023-02-18T17:03:19.502Z,101907.44
2023-02-18T17:05:46.115Z,101912.81
2023-02-18T17:08:12.569Z,101906.66
2023-02-18T17:10:39.675Z,101910.38
2023-02-18T17:13:06.259Z,101900.47
2023-02-18T17:15:35.369Z,101917.97
2023-02-18T17:18:04.384Z,101913.16
2023-02-18T17:20:33.125Z,101908.13
2023-02-18T17:22:59.770Z,101909.66
2023-02-18T17:25:39.004Z,101903.38
2023-02-18T17:28:06.259Z,101906.56
2023-02-18T17:30:36.797Z,101900.56
2023-02-18T17:33:04.697Z,101905.16
2023-02-18T17:35:31.709Z,101901.59
2023-02-18T17:37:58.738Z,101917.41
2023-02-18T17:40:27.917Z,101912.97
2023-02-18T17:42:55.973Z,101904.97
2023-02-18T17:45:38.729Z,101916.31
2023-02-18T17:48:05.563Z,101907.97
2023-02-18T17:50:32.243Z,101913.38
2023-02-18T17:52:58.929Z,101917.63
2023-02-18T17:55:30.877Z,101912.13
2023-02-18T17:57:57.922Z,101914.66
2023-02-18T18:00:29.234Z,101915.16
2023-02-18T18:02:55.813Z,101905.03
2023-02-18T18:05:29.044Z,101913.44
2023-02-18T18:07:55.733Z,101910.06
2023-02-18T18:10:30.559Z,101921.66
2023-02-18T18:12:58.656Z,101914.94
2023-02-18T18:15:34.186Z,101922.31
2023-02-18T18:18:00.767Z,101918.84
2023-02-18T18:20:29.372Z,101928.13
2023-02-18T18:22:58.159Z,101924.13
2023-02-18T18:25:28.534Z,101913.03
2023-02-18T18:27:55.397Z,101919.16
2023-02-18T18:30:24.940Z,101919.75
2023-02-18T18:32:51.745Z,101916.81
2023-02-18T18:35:28.265Z,101920.81
2023-02-18T18:37:55.186Z,101901.47
2023-02-18T18:40:23.900Z,101913.03
2023-02-18T18:42:50.566Z,101910.06
2023-02-18T18:45:23.565Z,101919.34
2023-02-18T18:47:51.039Z,101921.66
2023-02-18T18:50:19.041Z,101930.25
2023-02-18T18:52:46.314Z,101919.06
2023-02-18T18:55:31.231Z,101923.09
2023-02-18T18:57:59.292Z,101914.47
2023-02-18T19:00:29.764Z,101904.66
2023-02-18T19:02:56.619Z,101902.69
2023-02-18T19:05:38.127Z,101913.38
2023-02-18T19:08:06.331Z,101918.13
2023-02-18T19:10:38.753Z,101899.75
2023-02-18T19:13:20.664Z,101902.38
2023-02-18T19:15:47.612Z,101904.44
2023-02-18T19:18:19.962Z,101904.56
2023-02-18T19:20:47.497Z,101908.81
2023-02-18T19:23:14.694Z,101903.34
2023-02-18T19:25:41.516Z,101903.16
2023-02-18T19:28:10.129Z,101902.50
2023-02-18T19:30:37.329Z,101904.78
2023-02-18T19:33:05.911Z,101898.47
2023-02-18T19:35:33.065Z,101903.31
2023-02-18T19:38:00.056Z,101891.09
2023-02-18T19:40:29.289Z,101885.69
2023-02-18T19:42:56.367Z,101874.56
2023-02-18T19:45:23.316Z,101872.59
2023-02-18T19:47:58.503Z,101872.88
2023-02-18T19:50:26.810Z,101877.19
2023-02-18T19:52:57.179Z,101880.53
2023-02-18T19:55:23.818Z,101869.97
2023-02-18T19:57:51.489Z,101868.53
2023-02-18T20:00:20.186Z,101870.44
2023-02-18T20:02:46.874Z,101873.75
2023-02-18T20:05:13.918Z,101859.41
2023-02-18T20:07:41.585Z,101869.06
2023-02-18T20:10:11.281Z,101858.59
2023-02-18T20:12:37.993Z,101855.38
2023-02-18T20:15:04.789Z,101861.31
2023-02-18T20:17:31.338Z,101844.13
2023-02-18T20:19:57.883Z,101856.22
2023-02-18T20:22:25.049Z,101841.31
2023-02-18T20:24:51.588Z,101841.31
2023-02-18T20:27:18.185Z,101830.81
2023-02-18T20:29:44.767Z,101835.78
2023-02-18T20:32:11.440Z,101830.31
2023-02-18T20:34:38.054Z,101818.78
2023-02-18T20:37:04.660Z,101814.94
2023-02-18T20:39:31.215Z,101816.19
2023-02-18T20:42:01.018Z,101810.31
2023-02-18T20:44:29.533Z,101824.47
2023-02-18T20:46:56.073Z,101811.00
2023-02-18T20:49:22.864Z,101820.84
2023-02-18T20:51:49.402Z,101819.38
2023-02-18T20:54:19.624Z,101826.06
2023-02-18T20:56:48.890Z,101820.84
2023-02-18T20:59:18.175Z,101827.97
2023-02-18T21:01:46.131Z,101824.19
2023-02-18T21:04:15.416Z,101827.53
2023-02-18T21:06:45.393Z,101824.38
2023-02-18T21:09:12.992Z,101808.38
2023-02-18T21:11:39.601Z,101813.91
2023-02-18T21:14:06.855Z,101820.00
2023-02-18T21:16:38.431Z,101813.69
2023-02-18T21:19:07.077Z,101814.84
2023-02-18T21:21:33.662Z,101789.25
2023-02-18T21:24:00.141Z,101804.56
2023-02-18T21:26:28.064Z,101803.34
2023-02-18T21:28:57.688Z,101802.34
2023-02-18T21:31:27.408Z,101820.94
2023-02-18T21:33:53.994Z,101811.03
2023-02-18T21:36:21.154Z,101812.66
2023-02-18T21:38:52.806Z,101809.44
2023-02-18T21:41:20.160Z,101805.06
2023-02-18T21:43:47.304Z,101805.25
2023-02-18T21:46:18.493Z,101802.91
2023-02-18T21:49:03.431Z,101782.53
2023-02-18T21:51:50.858Z,101789.94
2023-02-18T21:54:27.621Z,101791.38
2023-02-18T21:56:54.897Z,101755.00
2023-02-18T21:59:23.289Z,101746.97
2023-02-18T22:01:50.488Z,101788.06
2023-02-18T22:04:17.075Z,101781.56
2023-02-18T22:06:43.774Z,101755.22
2023-02-18T22:09:11.214Z,101761.38
2023-02-18T22:11:40.231Z,101773.59
2023-02-18T22:14:06.847Z,101779.28
2023-02-18T22:16:33.359Z,101780.31
2023-02-18T22:18:59.984Z,101784.53
2023-02-18T22:21:26.917Z,101787.78
2023-02-18T22:23:53.824Z,101800.72
2023-02-18T22:26:20.563Z,101794.56
2023-02-18T22:28:54.952Z,101811.38
2023-02-18T22:31:22.469Z,101790.44
2023-02-18T22:33:51.969Z,101799.13
2023-02-18T22:36:20.513Z,101810.44
2023-02-18T22:38:47.872Z,101808.75
2023-02-18T22:41:16.055Z,101812.94
2023-02-18T22:43:42.815Z,101800.66
2023-02-18T22:46:12.075Z,101806.34
2023-02-18T22:48:39.653Z,101805.28
2023-02-18T22:51:14.590Z,101802.81
2023-02-18T22:53:42.564Z,101797.75
2023-02-18T22:56:14.880Z,101794.63
2023-02-18T22:58:42.653Z,101791.50
2023-02-18T23:01:23.406Z,101782.31
2023-02-18T23:03:51.167Z,101786.75
2023-02-18T23:06:18.956Z,101786.97
2023-02-18T23:08:45.604Z,101787.81
2023-02-18T23:11:15.456Z,101783.81
2023-02-18T23:13:42.736Z,101780.63
2023-02-18T23:16:13.147Z,101788.19
2023-02-18T23:18:40.388Z,101784.41
2023-02-18T23:21:22.518Z,101780.63
2023-02-18T23:23:52.229Z,101793.28
2023-02-18T23:26:21.619Z,101797.69
2023-02-18T23:28:49.714Z,101790.13
2023-02-18T23:31:20.145Z,101799.16
2023-02-18T23:33:51.282Z,101787.81
2023-02-18T23:36:20.246Z,101790.13
2023-02-18T23:38:49.150Z,101779.00
2023-02-18T23:41:16.268Z,101788.09
2023-02-18T23:43:43.264Z,101787.53
2023-02-18T23:46:09.857Z,101773.22
2023-02-18T23:48:38.345Z,101780.38
2023-02-18T23:51:06.955Z,101774.25
2023-02-18T23:53:34.998Z,101774.97
2023-02-18T23:56:04.274Z,101770.16
2023-02-18T23:58:31.180Z,101782.06
